SUD004 LYTV-LQSA
Flight info
| Callsign | SUD004 |
|---|---|
| Flight time | 0h 39m |
| Altitude | 22000 |
| Route | NIK DCT GACMO DCT KEB |
| Aircraft | A20N/M-SDE2E3FGHIRWXY/LB1 |
Departure
| Time | 2026-04-22 05:20 |
|---|---|
| Airport | Tivat Airport (LYTV) |
Arrival
| Time | 2026-04-22 05:59 |
|---|---|
| Airport | Sarajevo International Airport (LQSA) |
| Time | Latitude | Longitude | Altitude | Speed | Heading |
|---|---|---|---|---|---|
| 2026-04-22 04:54 | 42.41212 | 18.71692 | 18 ft | 0 kts | 44° |
| 2026-04-22 05:07 | 42.41201 | 18.71677 | 18 ft | 3 kts | 45° |
| 2026-04-22 05:08 | 42.41196 | 18.71655 | 18 ft | 0 kts | 136° |
| 2026-04-22 05:08 | 42.41173 | 18.71682 | 18 ft | 1 kts | 138° |
| 2026-04-22 05:08 | 42.41118 | 18.71744 | 18 ft | 19 kts | 141° |
| 2026-04-22 05:09 | 42.41079 | 18.71787 | 18 ft | 0 kts | 140° |
| 2026-04-22 05:09 | 42.41074 | 18.71792 | 18 ft | 2 kts | 139° |
| 2026-04-22 05:09 | 42.41062 | 18.71806 | 18 ft | 3 kts | 140° |
| 2026-04-22 05:10 | 42.41046 | 18.71826 | 18 ft | 4 kts | 137° |
| 2026-04-22 05:10 | 42.41024 | 18.71848 | 18 ft | 4 kts | 155° |
| 2026-04-22 05:10 | 42.40998 | 18.71847 | 18 ft | 4 kts | 202° |
| 2026-04-22 05:10 | 42.40977 | 18.71824 | 20 ft | 4 kts | 220° |
| 2026-04-22 05:11 | 42.40950 | 18.71805 | 19 ft | 5 kts | 196° |
| 2026-04-22 05:11 | 42.40912 | 18.71816 | 21 ft | 6 kts | 151° |
| 2026-04-22 05:11 | 42.40892 | 18.71832 | 19 ft | 3 kts | 147° |
| 2026-04-22 05:11 | 42.40864 | 18.71863 | 18 ft | 6 kts | 137° |
| 2026-04-22 05:12 | 42.40825 | 18.71909 | 17 ft | 9 kts | 140° |
| 2026-04-22 05:12 | 42.40774 | 18.71965 | 18 ft | 10 kts | 141° |
| 2026-04-22 05:12 | 42.40720 | 18.72028 | 18 ft | 10 kts | 138° |
| 2026-04-22 05:12 | 42.40691 | 18.72064 | 18 ft | 5 kts | 138° |
| 2026-04-22 05:13 | 42.40640 | 18.72124 | 17 ft | 10 kts | 138° |
| 2026-04-22 05:13 | 42.40586 | 18.72189 | 18 ft | 10 kts | 139° |
| 2026-04-22 05:13 | 42.40532 | 18.72253 | 19 ft | 10 kts | 139° |
| 2026-04-22 05:13 | 42.40478 | 18.72318 | 19 ft | 10 kts | 139° |
| 2026-04-22 05:14 | 42.40424 | 18.72383 | 19 ft | 10 kts | 139° |
| 2026-04-22 05:14 | 42.40370 | 18.72447 | 21 ft | 10 kts | 139° |
| 2026-04-22 05:14 | 42.40316 | 18.72511 | 22 ft | 10 kts | 139° |
| 2026-04-22 05:14 | 42.40262 | 18.72576 | 21 ft | 10 kts | 139° |
| 2026-04-22 05:15 | 42.40205 | 18.72636 | 22 ft | 10 kts | 143° |
| 2026-04-22 05:15 | 42.40149 | 18.72697 | 22 ft | 10 kts | 139° |
| 2026-04-22 05:15 | 42.40096 | 18.72763 | 21 ft | 10 kts | 137° |
| 2026-04-22 05:15 | 42.40042 | 18.72828 | 20 ft | 10 kts | 139° |
| 2026-04-22 05:16 | 42.39987 | 18.72892 | 21 ft | 10 kts | 140° |
| 2026-04-22 05:16 | 42.39931 | 18.72954 | 21 ft | 10 kts | 139° |
| 2026-04-22 05:16 | 42.39876 | 18.73018 | 20 ft | 10 kts | 139° |
| 2026-04-22 05:16 | 42.39823 | 18.73083 | 22 ft | 10 kts | 137° |
| 2026-04-22 05:17 | 42.39769 | 18.73148 | 22 ft | 10 kts | 139° |
| 2026-04-22 05:17 | 42.39739 | 18.73183 | 23 ft | 6 kts | 144° |
| 2026-04-22 05:17 | 42.39703 | 18.73214 | 23 ft | 6 kts | 151° |
| 2026-04-22 05:17 | 42.39664 | 18.73239 | 23 ft | 6 kts | 159° |
| 2026-04-22 05:18 | 42.39630 | 18.73305 | 24 ft | 6 kts | 7° |
| 2026-04-22 05:18 | 42.39644 | 18.73294 | 25 ft | 1 kts | 313° |
| 2026-04-22 05:18 | 42.39659 | 18.73273 | 23 ft | 0 kts | 317° |
| 2026-04-22 05:19 | 42.39660 | 18.73271 | 23 ft | 3 kts | 317° |
| 2026-04-22 05:19 | 42.39901 | 18.72991 | 21 ft | 90 kts | 319° |
| 2026-04-22 05:19 | 42.40567 | 18.72200 | 28 ft | 160 kts | 319° |
| 2026-04-22 05:20 | 42.41420 | 18.71182 | 747 ft | 163 kts | 318° |
| 2026-04-22 05:20 | 42.42225 | 18.70153 | 1649 ft | 162 kts | 316° |
| 2026-04-22 05:20 | 42.43089 | 18.68943 | 2152 ft | 192 kts | 313° |
| 2026-04-22 05:20 | 42.43965 | 18.67509 | 3066 ft | 201 kts | 302° |
| 2026-04-22 05:21 | 42.44251 | 18.65652 | 3961 ft | 214 kts | 255° |
| 2026-04-22 05:21 | 42.43372 | 18.64056 | 4924 ft | 220 kts | 207° |
| 2026-04-22 05:21 | 42.41921 | 18.63405 | 5929 ft | 229 kts | 195° |
| 2026-04-22 05:21 | 42.40424 | 18.62599 | 6875 ft | 233 kts | 220° |
| 2026-04-22 05:22 | 42.39397 | 18.60837 | 7518 ft | 253 kts | 236° |
| 2026-04-22 05:22 | 42.38152 | 18.58986 | 8165 ft | 271 kts | 215° |
| 2026-04-22 05:22 | 42.36489 | 18.58081 | 9852 ft | 246 kts | 187° |
| 2026-04-22 05:22 | 42.34840 | 18.57777 | 11126 ft | 236 kts | 204° |
| 2026-04-22 05:23 | 42.33555 | 18.56536 | 11949 ft | 225 kts | 240° |
| 2026-04-22 05:23 | 42.33058 | 18.54610 | 12810 ft | 216 kts | 270° |
| 2026-04-22 05:23 | 42.33306 | 18.52648 | 13738 ft | 212 kts | 288° |
| 2026-04-22 05:23 | 42.33440 | 18.50587 | 14054 ft | 242 kts | 257° |
| 2026-04-22 05:24 | 42.32378 | 18.48600 | 14131 ft | 288 kts | 220° |
| 2026-04-22 05:24 | 42.30402 | 18.47576 | 14442 ft | 326 kts | 192° |
| 2026-04-22 05:24 | 42.28067 | 18.47936 | 15099 ft | 348 kts | 166° |
| 2026-04-22 05:24 | 42.25975 | 18.49516 | 16388 ft | 346 kts | 144° |
| 2026-04-22 05:25 | 42.24418 | 18.51974 | 17490 ft | 349 kts | 122° |
| 2026-04-22 05:25 | 42.23477 | 18.55032 | 18179 ft | 358 kts | 108° |
| 2026-04-22 05:25 | 42.22356 | 18.58034 | 18781 ft | 360 kts | 132° |
| 2026-04-22 05:25 | 42.20541 | 18.60292 | 19405 ft | 352 kts | 155° |
| 2026-04-22 05:26 | 42.18417 | 18.61938 | 20054 ft | 353 kts | 160° |
| 2026-04-22 05:26 | 42.16237 | 18.63489 | 20728 ft | 356 kts | 161° |
| 2026-04-22 05:26 | 42.14037 | 18.65056 | 21375 ft | 360 kts | 161° |
| 2026-04-22 05:26 | 42.11802 | 18.66706 | 21816 ft | 376 kts | 155° |
| 2026-04-22 05:27 | 42.09775 | 18.69076 | 21971 ft | 408 kts | 134° |
| 2026-04-22 05:27 | 42.08234 | 18.72435 | 21982 ft | 437 kts | 114° |
| 2026-04-22 05:27 | 42.07405 | 18.76474 | 21983 ft | 459 kts | 95° |
| 2026-04-22 05:27 | 42.07362 | 18.80841 | 21983 ft | 476 kts | 79° |
| 2026-04-22 05:28 | 42.08095 | 18.85242 | 21991 ft | 489 kts | 65° |
| 2026-04-22 05:28 | 42.09538 | 18.89430 | 21980 ft | 499 kts | 52° |
| 2026-04-22 05:28 | 42.11589 | 18.93190 | 21981 ft | 505 kts | 40° |
| 2026-04-22 05:28 | 42.14188 | 18.96397 | 21981 ft | 509 kts | 29° |
| 2026-04-22 05:29 | 42.17200 | 18.98890 | 22047 ft | 501 kts | 20° |
| 2026-04-22 05:29 | 42.20212 | 19.01030 | 21740 ft | 482 kts | 19° |
| 2026-04-22 05:29 | 42.23186 | 19.02969 | 21174 ft | 461 kts | 12° |
| 2026-04-22 05:29 | 42.26139 | 19.03981 | 21356 ft | 415 kts | 358° |
| 2026-04-22 05:30 | 42.28861 | 19.04036 | 21743 ft | 370 kts | 345° |
| 2026-04-22 05:30 | 42.31295 | 19.03570 | 22004 ft | 341 kts | 340° |
| 2026-04-22 05:30 | 42.33656 | 19.02970 | 22016 ft | 353 kts | 339° |
| 2026-04-22 05:30 | 42.36087 | 19.02320 | 22013 ft | 356 kts | 340° |
| 2026-04-22 05:31 | 42.38519 | 19.01696 | 22014 ft | 355 kts | 340° |
| 2026-04-22 05:31 | 42.40951 | 19.01101 | 22013 ft | 356 kts | 340° |
| 2026-04-22 05:31 | 42.43395 | 19.00508 | 22045 ft | 360 kts | 340° |
| 2026-04-22 05:31 | 42.45857 | 18.99916 | 22009 ft | 356 kts | 341° |
| 2026-04-22 05:32 | 42.48283 | 18.99361 | 22016 ft | 354 kts | 341° |
| 2026-04-22 05:32 | 42.50725 | 18.98793 | 22013 ft | 357 kts | 341° |
| 2026-04-22 05:32 | 42.53167 | 18.98222 | 22012 ft | 356 kts | 341° |
| 2026-04-22 05:32 | 42.55602 | 18.97650 | 22019 ft | 355 kts | 341° |
| 2026-04-22 05:33 | 42.58044 | 18.97071 | 22012 ft | 357 kts | 341° |
| 2026-04-22 05:33 | 42.60485 | 18.96493 | 22013 ft | 356 kts | 341° |
| 2026-04-22 05:33 | 42.62926 | 18.95914 | 22014 ft | 357 kts | 341° |
| 2026-04-22 05:33 | 42.65384 | 18.95326 | 22022 ft | 360 kts | 341° |
| 2026-04-22 05:34 | 42.67809 | 18.94747 | 22020 ft | 360 kts | 341° |
| 2026-04-22 05:34 | 42.70310 | 18.94156 | 22021 ft | 358 kts | 341° |
| 2026-04-22 05:34 | 42.72764 | 18.93577 | 21984 ft | 357 kts | 341° |
| 2026-04-22 05:34 | 42.75189 | 18.92946 | 21667 ft | 351 kts | 337° |
| 2026-04-22 05:35 | 42.77473 | 18.91908 | 21146 ft | 343 kts | 329° |
| 2026-04-22 05:35 | 42.79543 | 18.90461 | 20518 ft | 336 kts | 322° |
| 2026-04-22 05:35 | 42.81448 | 18.88643 | 19864 ft | 334 kts | 319° |
| 2026-04-22 05:35 | 42.83317 | 18.86761 | 19223 ft | 334 kts | 320° |
| 2026-04-22 05:36 | 42.85201 | 18.84884 | 18712 ft | 335 kts | 320° |
| 2026-04-22 05:36 | 42.87073 | 18.83024 | 18197 ft | 333 kts | 321° |
| 2026-04-22 05:36 | 42.88930 | 18.81180 | 18033 ft | 329 kts | 321° |
| 2026-04-22 05:36 | 42.90796 | 18.79322 | 18039 ft | 335 kts | 321° |
| 2026-04-22 05:37 | 42.92675 | 18.77448 | 18036 ft | 334 kts | 321° |
| 2026-04-22 05:37 | 42.94551 | 18.75576 | 18041 ft | 334 kts | 321° |
| 2026-04-22 05:37 | 42.96426 | 18.73703 | 18040 ft | 334 kts | 321° |
| 2026-04-22 05:37 | 42.98301 | 18.71830 | 18052 ft | 334 kts | 321° |
| 2026-04-22 05:38 | 43.00175 | 18.69954 | 18049 ft | 334 kts | 321° |
| 2026-04-22 05:38 | 43.02052 | 18.68075 | 18045 ft | 334 kts | 321° |
| 2026-04-22 05:38 | 43.03923 | 18.66200 | 18043 ft | 334 kts | 321° |
| 2026-04-22 05:38 | 43.05797 | 18.64320 | 18046 ft | 334 kts | 321° |
| 2026-04-22 05:39 | 43.07670 | 18.62442 | 18070 ft | 334 kts | 321° |
| 2026-04-22 05:39 | 43.09539 | 18.60565 | 18055 ft | 333 kts | 321° |
| 2026-04-22 05:39 | 43.11402 | 18.58694 | 18052 ft | 333 kts | 321° |
| 2026-04-22 05:39 | 43.13369 | 18.57005 | 18050 ft | 336 kts | 330° |
| 2026-04-22 05:40 | 43.15565 | 18.55854 | 18055 ft | 341 kts | 340° |
| 2026-04-22 05:40 | 43.17923 | 18.55293 | 18062 ft | 347 kts | 349° |
| 2026-04-22 05:40 | 43.20329 | 18.54991 | 18061 ft | 347 kts | 349° |
| 2026-04-22 05:40 | 43.22730 | 18.54674 | 18062 ft | 346 kts | 349° |
| 2026-04-22 05:41 | 43.25129 | 18.54351 | 18071 ft | 346 kts | 348° |
| 2026-04-22 05:41 | 43.27527 | 18.54025 | 18068 ft | 347 kts | 348° |
| 2026-04-22 05:41 | 43.29923 | 18.53696 | 18073 ft | 346 kts | 348° |
| 2026-04-22 05:41 | 43.32314 | 18.53369 | 17896 ft | 344 kts | 348° |
| 2026-04-22 05:42 | 43.34693 | 18.53044 | 17467 ft | 343 kts | 349° |
| 2026-04-22 05:42 | 43.37058 | 18.52721 | 16890 ft | 341 kts | 349° |
| 2026-04-22 05:42 | 43.39413 | 18.52399 | 16230 ft | 340 kts | 349° |
| 2026-04-22 05:42 | 43.41723 | 18.52081 | 15628 ft | 337 kts | 349° |
| 2026-04-22 05:43 | 43.44056 | 18.51761 | 15071 ft | 336 kts | 350° |
| 2026-04-22 05:43 | 43.46374 | 18.51444 | 14537 ft | 334 kts | 350° |
| 2026-04-22 05:43 | 43.48687 | 18.51126 | 13982 ft | 334 kts | 351° |
| 2026-04-22 05:43 | 43.51002 | 18.50807 | 13410 ft | 333 kts | 351° |
| 2026-04-22 05:44 | 43.53299 | 18.50491 | 12858 ft | 331 kts | 352° |
| 2026-04-22 05:44 | 43.55581 | 18.50177 | 12308 ft | 329 kts | 352° |
| 2026-04-22 05:44 | 43.57854 | 18.49864 | 11776 ft | 327 kts | 352° |
| 2026-04-22 05:44 | 43.60111 | 18.49554 | 11254 ft | 325 kts | 352° |
| 2026-04-22 05:45 | 43.62358 | 18.49245 | 10757 ft | 324 kts | 353° |
| 2026-04-22 05:45 | 43.64594 | 18.48938 | 10259 ft | 322 kts | 353° |
| 2026-04-22 05:45 | 43.66813 | 18.48633 | 9820 ft | 318 kts | 353° |
| 2026-04-22 05:45 | 43.69011 | 18.48327 | 9313 ft | 315 kts | 354° |
| 2026-04-22 05:46 | 43.71152 | 18.48031 | 9130 ft | 305 kts | 354° |
| 2026-04-22 05:46 | 43.73299 | 18.47731 | 9106 ft | 317 kts | 354° |
| 2026-04-22 05:46 | 43.75495 | 18.47428 | 9107 ft | 317 kts | 354° |
| 2026-04-22 05:46 | 43.77679 | 18.47127 | 9106 ft | 315 kts | 354° |
| 2026-04-22 05:47 | 43.79845 | 18.46832 | 9099 ft | 310 kts | 354° |
| 2026-04-22 05:47 | 43.82014 | 18.46538 | 9107 ft | 315 kts | 354° |
| 2026-04-22 05:47 | 43.84210 | 18.46239 | 9211 ft | 319 kts | 354° |
| 2026-04-22 05:47 | 43.86430 | 18.45936 | 9801 ft | 323 kts | 354° |
| 2026-04-22 05:48 | 43.88660 | 18.45629 | 9898 ft | 322 kts | 354° |
| 2026-04-22 05:48 | 43.90880 | 18.45318 | 9654 ft | 319 kts | 353° |
| 2026-04-22 05:48 | 43.92999 | 18.44503 | 9192 ft | 317 kts | 335° |
| 2026-04-22 05:48 | 43.94807 | 18.42770 | 8678 ft | 318 kts | 316° |
| 2026-04-22 05:49 | 43.96286 | 18.40491 | 8154 ft | 317 kts | 312° |
| 2026-04-22 05:49 | 43.97738 | 18.38204 | 7641 ft | 315 kts | 313° |
| 2026-04-22 05:49 | 43.99187 | 18.35927 | 7163 ft | 314 kts | 313° |
| 2026-04-22 05:49 | 44.00628 | 18.33660 | 6660 ft | 313 kts | 313° |
| 2026-04-22 05:50 | 44.02062 | 18.31403 | 6170 ft | 311 kts | 313° |
| 2026-04-22 05:50 | 44.03488 | 18.29162 | 5677 ft | 308 kts | 313° |
| 2026-04-22 05:50 | 44.04903 | 18.26938 | 5181 ft | 306 kts | 313° |
| 2026-04-22 05:50 | 44.06312 | 18.24726 | 4683 ft | 304 kts | 313° |
| 2026-04-22 05:51 | 44.07681 | 18.22583 | 4437 ft | 299 kts | 313° |
| 2026-04-22 05:51 | 44.08969 | 18.20215 | 4557 ft | 308 kts | 297° |
| 2026-04-22 05:51 | 44.09558 | 18.17367 | 4904 ft | 301 kts | 275° |
| 2026-04-22 05:51 | 44.09353 | 18.14570 | 5002 ft | 284 kts | 253° |
| 2026-04-22 05:52 | 44.08500 | 18.12196 | 5005 ft | 268 kts | 233° |
| 2026-04-22 05:52 | 44.07204 | 18.10455 | 5012 ft | 252 kts | 214° |
| 2026-04-22 05:52 | 44.05717 | 18.09353 | 4997 ft | 234 kts | 204° |
| 2026-04-22 05:52 | 44.04257 | 18.08456 | 5000 ft | 230 kts | 202° |
| 2026-04-22 05:53 | 44.02769 | 18.07663 | 4929 ft | 227 kts | 199° |
| 2026-04-22 05:53 | 44.01297 | 18.07007 | 4834 ft | 217 kts | 195° |
| 2026-04-22 05:53 | 43.99871 | 18.06487 | 4686 ft | 208 kts | 192° |
| 2026-04-22 05:53 | 43.98937 | 18.06207 | 4501 ft | 207 kts | 190° |
| 2026-04-22 05:54 | 43.97061 | 18.05783 | 4124 ft | 205 kts | 186° |
| 2026-04-22 05:54 | 43.95666 | 18.05586 | 3982 ft | 197 kts | 184° |
| 2026-04-22 05:54 | 43.94316 | 18.05512 | 3762 ft | 193 kts | 174° |
| 2026-04-22 05:54 | 43.93068 | 18.06115 | 3417 ft | 192 kts | 142° |
| 2026-04-22 05:55 | 43.92144 | 18.07465 | 3187 ft | 201 kts | 121° |
| 2026-04-22 05:55 | 43.91642 | 18.08608 | 3410 ft | 208 kts | 116° |
| 2026-04-22 05:55 | 43.90746 | 18.10981 | 3547 ft | 211 kts | 115° |
| 2026-04-22 05:55 | 43.90298 | 18.12192 | 3542 ft | 206 kts | 115° |
| 2026-04-22 05:56 | 43.89669 | 18.13874 | 3459 ft | 190 kts | 115° |
| 2026-04-22 05:56 | 43.89087 | 18.15428 | 3223 ft | 177 kts | 114° |
| 2026-04-22 05:56 | 43.88537 | 18.16894 | 2943 ft | 165 kts | 115° |
| 2026-04-22 05:56 | 43.88015 | 18.18297 | 2596 ft | 175 kts | 115° |
| 2026-04-22 05:57 | 43.87428 | 18.19874 | 2899 ft | 187 kts | 115° |
| 2026-04-22 05:57 | 43.86853 | 18.21402 | 3511 ft | 172 kts | 116° |
| 2026-04-22 05:57 | 43.86290 | 18.22912 | 3307 ft | 179 kts | 115° |
| 2026-04-22 05:57 | 43.85730 | 18.24403 | 3067 ft | 170 kts | 115° |
| 2026-04-22 05:58 | 43.85204 | 18.25813 | 2831 ft | 165 kts | 115° |
| 2026-04-22 05:58 | 43.84680 | 18.27213 | 2578 ft | 158 kts | 116° |
| 2026-04-22 05:58 | 43.84174 | 18.28563 | 2334 ft | 154 kts | 115° |
| 2026-04-22 05:58 | 43.83697 | 18.29837 | 2019 ft | 148 kts | 115° |
| 2026-04-22 05:59 | 43.83238 | 18.31075 | 1767 ft | 139 kts | 114° |
| 2026-04-22 05:59 | 43.82820 | 18.32205 | 1652 ft | 124 kts | 116° |
| 2026-04-22 05:59 | 43.82507 | 18.33028 | 1672 ft | 56 kts | 118° |
| 2026-04-22 05:59 | 43.82411 | 18.33280 | 1676 ft | 32 kts | 117° |
| 2026-04-22 06:00 | 43.82307 | 18.33561 | 1684 ft | 22 kts | 118° |
| 2026-04-22 06:00 | 43.82288 | 18.33659 | 1685 ft | 9 kts | 62° |
| 2026-04-22 06:00 | 43.82343 | 18.33666 | 1685 ft | 11 kts | 348° |
| 2026-04-22 06:00 | 43.82394 | 18.33650 | 1687 ft | 0 kts | 346° |
| 2026-04-22 06:01 | 43.82418 | 18.33641 | 1689 ft | 0 kts | 345° |
| 2026-04-22 06:01 | 43.82432 | 18.33638 | 1686 ft | 6 kts | 356° |
| 2026-04-22 06:02 | 43.82490 | 18.33664 | 1686 ft | 1 kts | 27° |
| 2026-04-22 06:02 | 43.82512 | 18.33680 | 1686 ft | 1 kts | 24° |
| 2026-04-22 06:02 | 43.82517 | 18.33683 | 1687 ft | 0 kts | 24° |